Labrador City, Canada
Current Conditions -  °F | °C
As of 1:00 AM on Tuesday 27 Jan 2015 (Local Time) from CYWK Reporting Station
Clear Clear  
Wind Chill: -44°   Ceiling: Unl
Heat Index: -29°   Visibility: 9mi
Dew Point: -35°   Wind: 5mph
Humidity: 75%   Direction: 190°S
Pressure: 30.21"   Gusts: NA
Location:  52.95°N, 66.91°W
Report Text: CYWK 270500Z AUTO 19004KT 150V210 9SM CLR M34/M37 A3021 RMK SLP314
Loading
Personal Weather Stations






























Interactive Weather Map New forecast layout! Learn more

10-Day Weather Forecast

Advertisements
Track Severe Weather on mobile